Time;durP1;ratioP1;P1;durP2;ratioP2;P2;SDS_P1;SDS_P2;PMS_P1;PMS_P2;Temp;Humidity;BMP_temperature;BMP_pressure;BME280_temperature;BME280_humidity;BME280_pressure;Samples;Min_cycle;Max_cycle;Signal;HPM_P1;HPM_P2
2024/04/09 00:00:27;;;;;;;;;;;;;;;16.98;50.29;101150.50;5458555;26;1115;-50
2024/04/09 00:02:52;;;;;;;;;;;;;;;16.52;51.41;101134.91;5458815;26;1273;-55
2024/04/09 00:05:19;;;;;;;;;;;;;;;16.43;51.20;101129.38;5458088;26;1860;-55
2024/04/09 00:07:45;;;;;;;;;;;;;;;16.15;51.75;101132.88;5458985;26;1298;-55
2024/04/09 00:10:13;;;;;;;;;;;;;;;16.01;51.81;101130.28;5458936;26;1292;-54
2024/04/09 00:12:38;;;;;;;;;;;;;;;16.39;51.89;101126.91;5458471;26;944;-57
2024/04/09 00:15:07;;;;;;;;;;;;;;;17.73;49.10;101127.59;5458955;26;1285;-56
2024/04/09 00:17:44;;;;;;;;;;;;;;;17.02;50.58;101125.41;5457848;26;1174;-56
2024/04/09 00:20:17;;;;;;;;;;;;;;;16.45;51.47;101125.63;5437735;26;1167;-51
2024/04/09 00:22:45;;;;;;;;;;;;;;;16.31;51.50;101125.72;5458569;26;1127;-54
2024/04/09 00:25:18;;;;;;;;;;;;;;;16.15;51.66;101119.59;5458142;26;1833;-54
2024/04/09 00:27:44;;;;;;;;;;;;;;;15.97;52.03;101120.75;5458017;26;1219;-54
2024/04/09 00:30:10;;;;;;;;;;;;;;;17.33;49.85;101117.16;5440101;26;1258;-56
2024/04/09 00:32:36;;;;;;;;;;;;;;;17.27;49.56;101118.41;5452398;26;1312;-58
2024/04/09 00:35:03;;;;;;;;;;;;;;;16.67;50.88;101118.88;5458591;26;1368;-51
2024/04/09 00:37:29;;;;;;;;;;;;;;;16.39;51.37;101110.13;5457893;26;1110;-51
2024/04/09 00:39:55;;;;;;;;;;;;;;;16.15;51.58;101110.78;5458208;26;1242;-56
2024/04/09 00:42:20;;;;;;;;;;;;;;;16.25;52.04;101105.72;5458236;26;1163;-51
2024/04/09 00:44:48;;;;;;;;;;;;;;;17.67;49.13;101122.72;5458334;26;1814;-48
2024/04/09 00:47:16;;;;;;;;;;;;;;;16.99;50.19;101126.47;5457306;26;1171;-56
2024/04/09 00:49:43;;;;;;;;;;;;;;;16.64;51.02;101122.63;5458293;26;1289;-52
2024/04/09 00:52:08;;;;;;;;;;;;;;;16.37;51.35;101130.59;5458259;26;1262;-52
2024/04/09 00:54:35;;;;;;;;;;;;;;;16.12;51.39;101119.81;5458018;26;1186;-53
2024/04/09 00:57:01;;;;;;;;;;;;;;;17.37;50.02;101135.44;5417774;26;1224;-48
2024/04/09 00:59:26;;;;;;;;;;;;;;;17.20;49.68;101141.91;5442730;26;1255;-56
2024/04/09 01:01:52;;;;;;;;;;;;;;;16.69;50.90;101134.72;5458269;26;1238;-51
2024/04/09 01:04:17;;;;;;;;;;;;;;;16.43;51.04;101129.38;5457897;26;1864;-54
2024/04/09 01:06:43;;;;;;;;;;;;;;;16.52;51.32;101132.25;5450190;26;1328;-56
2024/04/09 01:09:09;;;;;;;;;;;;;;;17.84;48.48;101121.50;5441409;26;1301;-52
2024/04/09 01:11:35;;;;;;;;;;;;;;;17.10;49.63;101132.91;5457560;26;1336;-49
2024/04/09 01:14:01;;;;;;;;;;;;;;;16.61;50.89;101122.84;5458006;26;1187;-50
2024/04/09 01:16:26;;;;;;;;;;;;;;;16.38;51.09;101125.19;5457624;26;1287;-54
2024/04/09 01:18:52;;;;;;;;;;;;;;;16.24;51.21;101122.59;5457485;26;1254;-49
2024/04/09 01:21:18;;;;;;;;;;;;;;;16.14;51.26;101125.00;5457740;26;1273;-51
2024/04/09 01:23:44;;;;;;;;;;;;;;;17.17;50.36;101125.31;5457112;26;1865;-49
2024/04/09 01:26:09;;;;;;;;;;;;;;;17.46;49.03;101123.31;5425373;26;1297;-54
2024/04/09 01:28:36;;;;;;;;;;;;;;;16.75;50.46;101129.00;5421449;26;1361;-51
2024/04/09 01:31:01;;;;;;;;;;;;;;;16.42;51.20;101123.19;5455271;26;1128;-56
2024/04/09 01:33:27;;;;;;;;;;;;;;;16.17;51.63;101127.47;5457501;26;1296;-50
2024/04/09 01:35:53;;;;;;;;;;;;;;;16.05;51.67;101118.50;5457306;26;1184;-52
2024/04/09 01:38:19;;;;;;;;;;;;;;;17.12;49.94;101115.00;5457494;26;1188;-55
2024/04/09 01:40:44;;;;;;;;;;;;;;;17.45;49.16;101115.44;5457060;26;1124;-51
2024/04/09 01:43:10;;;;;;;;;;;;;;;16.78;50.39;101118.19;5456982;26;1130;-51
2024/04/09 01:45:37;;;;;;;;;;;;;;;16.99;50.11;101118.50;5457475;26;1837;-51
2024/04/09 01:48:02;;;;;;;;;;;;;;;16.57;50.80;101117.81;5456691;26;1174;-54
2024/04/09 01:50:28;;;;;;;;;;;;;;;17.72;48.65;101117.91;5457011;26;1234;-49
2024/04/09 01:52:53;;;;;;;;;;;;;;;18.47;47.02;101107.19;5457049;26;1127;-49
2024/04/09 01:55:19;;;;;;;;;;;;;;;17.49;49.14;101103.59;5433141;26;1317;-49
2024/04/09 01:57:45;;;;;;;;;;;;;;;16.99;50.13;101097.25;5425073;26;1413;-50
2024/04/09 02:00:12;;;;;;;;;;;;;;;18.32;47.44;101101.19;5425120;26;1228;-50
2024/04/09 02:02:40;;;;;;;;;;;;;;;17.77;48.31;101100.78;5456881;26;1278;-50
2024/04/09 02:05:07;;;;;;;;;;;;;;;17.15;49.49;101093.53;5456824;26;1821;-47
2024/04/09 02:07:33;;;;;;;;;;;;;;;17.41;49.71;101092.66;5456866;26;1170;-53
2024/04/09 02:09:59;;;;;;;;;;;;;;;18.42;47.21;101097.81;5456422;26;1171;-50
2024/04/09 02:12:25;;;;;;;;;;;;;;;17.53;48.58;101098.91;5456676;26;1277;-51
2024/04/09 02:14:50;;;;;;;;;;;;;;;17.09;50.01;101099.28;5456794;26;1336;-51
2024/04/09 02:17:16;;;;;;;;;;;;;;;17.40;49.64;101101.59;5456658;26;1265;-54
2024/04/09 02:19:41;;;;;;;;;;;;;;;18.25;47.29;101101.78;5456229;26;1211;-52
2024/04/09 02:22:07;;;;;;;;;;;;;;;17.46;49.34;101099.38;5457308;26;1146;-53
2024/04/09 02:24:33;;;;;;;;;;;;;;;17.08;50.15;101098.41;5455824;26;1829;-52
2024/04/09 02:26:59;;;;;;;;;;;;;;;17.95;48.87;101101.25;5456738;26;1373;-50
2024/04/09 02:29:24;;;;;;;;;;;;;;;18.33;47.24;101094.88;5456609;26;1171;-48
2024/04/09 02:31:50;;;;;;;;;;;;;;;17.68;48.74;101094.31;5436842;26;1174;-53
2024/04/09 02:34:15;;;;;;;;;;;;;;;17.22;49.69;101091.28;5452171;26;1297;-51
2024/04/09 02:36:41;;;;;;;;;;;;;;;17.89;48.45;101088.38;5455989;26;1358;-49
2024/04/09 02:39:08;;;;;;;;;;;;;;;17.90;47.95;101085.59;5455930;26;1294;-50
2024/04/09 02:41:35;;;;;;;;;;;;;;;17.38;49.43;101088.44;5456026;26;1257;-48
2024/04/09 02:44:01;;;;;;;;;;;;;;;17.09;49.88;101086.00;5455787;26;1818;-51
2024/04/09 02:46:26;;;;;;;;;;;;;;;17.50;49.57;101084.00;5456079;26;1234;-47
2024/04/09 02:48:52;;;;;;;;;;;;;;;18.37;47.27;101094.69;5455691;26;1210;-52
2024/04/09 02:51:18;;;;;;;;;;;;;;;17.57;49.17;101093.25;5456193;26;1167;-49
2024/04/09 02:53:44;;;;;;;;;;;;;;;17.24;49.84;101090.25;5456385;26;1132;-47
2024/04/09 02:56:10;;;;;;;;;;;;;;;17.00;50.32;101095.41;5455252;26;1349;-50
2024/04/09 02:58:35;;;;;;;;;;;;;;;18.46;47.49;101105.50;5424201;26;1203;-47
2024/04/09 03:01:04;;;;;;;;;;;;;;;17.76;48.69;101110.56;5455152;26;1274;-50
2024/04/09 03:03:30;;;;;;;;;;;;;;;17.24;49.77;101102.69;5455837;26;1821;-51
2024/04/09 03:05:56;;;;;;;;;;;;;;;17.52;49.86;101107.88;5456099;26;1377;-51
2024/04/09 03:08:22;;;;;;;;;;;;;;;18.27;47.81;101108.69;5455408;26;1274;-51
2024/04/09 03:10:47;;;;;;;;;;;;;;;17.52;49.05;101113.19;5455679;26;1360;-49
2024/04/09 03:13:13;;;;;;;;;;;;;;;17.22;49.43;101115.22;5455519;26;1248;-53
2024/04/09 03:15:38;;;;;;;;;;;;;;;17.64;49.09;101125.59;5455571;26;1293;-53
2024/04/09 03:18:04;;;;;;;;;;;;;;;18.11;47.79;101131.09;5455920;26;1163;-50
2024/04/09 03:20:29;;;;;;;;;;;;;;;17.47;49.11;101127.66;5456043;26;1277;-53
2024/04/09 03:22:55;;;;;;;;;;;;;;;17.45;49.48;101126.91;5451722;26;1330;-51
2024/04/09 03:25:20;;;;;;;;;;;;;;;18.06;47.99;101127.06;5447361;26;1850;-53
2024/04/09 03:27:47;;;;;;;;;;;;;;;17.50;49.42;101127.44;5455294;26;1448;-52
2024/04/09 03:30:12;;;;;;;;;;;;;;;17.44;49.59;101125.22;5454784;26;1500;-49
2024/04/09 03:32:38;;;;;;;;;;;;;;;17.61;49.06;101125.81;5455452;26;1199;-59
2024/04/09 03:35:04;;;;;;;;;;;;;;;18.34;46.77;101127.72;5432880;26;1128;-56
2024/04/09 03:37:29;;;;;;;;;;;;;;;17.97;47.52;101132.09;5442681;26;1359;-57
2024/04/09 03:39:55;;;;;;;;;;;;;;;17.96;47.71;101132.22;5442843;26;1621;-51
2024/04/09 03:42:21;;;;;;;;;;;;;;;17.13;48.95;101138.84;5455461;26;1250;-57
2024/04/09 03:44:46;;;;;;;;;;;;;;;16.83;49.62;101142.59;5455232;26;1829;-57
2024/04/09 03:47:12;;;;;;;;;;;;;;;16.51;49.91;101135.03;5455624;26;1397;-56
2024/04/09 03:49:37;;;;;;;;;;;;;;;16.32;50.46;101141.53;5455484;26;1257;-54
2024/04/09 03:52:03;;;;;;;;;;;;;;;16.21;50.62;101136.94;5454943;26;1272;-57
2024/04/09 03:54:29;;;;;;;;;;;;;;;16.02;50.99;101142.56;5455197;26;1174;-53
2024/04/09 03:56:54;;;;;;;;;;;;;;;17.23;50.19;101143.53;5455975;26;1284;-62
2024/04/09 03:59:20;;;;;;;;;;;;;;;17.29;50.15;101147.56;5455171;26;1301;-59
2024/04/09 04:01:45;;;;;;;;;;;;;;;16.65;51.30;101139.38;5450992;26;1298;-61
2024/04/09 04:04:13;;;;;;;;;;;;;;;16.38;51.65;101137.63;5440974;26;1864;-55
2024/04/09 04:06:38;;;;;;;;;;;;;;;16.46;52.42;101143.28;5455295;26;1219;-54
2024/04/09 04:09:04;;;;;;;;;;;;;;;16.47;51.60;101141.47;5456928;26;1110;-59
2024/04/09 04:11:31;;;;;;;;;;;;;;;15.78;51.51;101136.06;5458953;26;1164;-59
2024/04/09 04:13:56;;;;;;;;;;;;;;;15.41;50.71;101143.69;5458212;26;1128;-60
2024/04/09 04:16:22;;;;;;;;;;;;;;;16.79;51.17;101154.41;5459261;26;1385;-60
2024/04/09 04:18:48;;;;;;;;;;;;;;;15.74;51.71;101152.28;5435469;26;1186;-60
2024/04/09 04:21:14;;;;;;;;;;;;;;;15.53;50.38;101148.19;5439092;26;1263;-62
2024/04/09 04:23:39;;;;;;;;;;;;;;;15.44;49.51;101148.78;5428099;26;1829;-62
2024/04/09 04:26:08;;;;;;;;;;;;;;;16.36;50.72;101156.31;5426002;26;1359;-63
2024/04/09 04:28:37;;;;;;;;;;;;;;;15.86;51.12;101153.28;5423946;26;1247;-60
2024/04/09 04:31:06;;;;;;;;;;;;;;;15.51;50.00;101147.47;5420801;26;1453;-62
2024/04/09 04:33:32;;;;;;;;;;;;;;;14.37;49.00;100989.16;5422887;26;1250;-61
2024/04/09 04:35:57;;;;;;;;;;;;;;;16.19;50.17;101153.91;5427261;26;1456;-61
2024/04/09 04:38:23;;;;;;;;;;;;;;;16.76;49.99;101154.63;5428533;26;1449;-62
2024/04/09 04:40:49;;;;;;;;;;;;;;;15.78;50.66;101162.59;5426810;26;1350;-60
2024/04/09 04:43:15;;;;;;;;;;;;;;;15.60;49.43;101167.25;5422251;26;1209;-60
2024/04/09 04:45:41;;;;;;;;;;;;;;;16.56;50.56;101163.91;5423167;26;1830;-61
2024/04/09 04:48:07;;;;;;;;;;;;;;;16.15;50.42;101162.06;5427674;26;1503;-62
2024/04/09 04:50:32;;;;;;;;;;;;;;;15.71;49.90;101155.13;5426244;26;1323;-61
2024/04/09 04:52:58;;;;;;;;;;;;;;;15.51;48.96;101158.06;5428145;26;1549;-57
2024/04/09 04:55:23;;;;;;;;;;;;;;;16.42;50.45;101152.41;5440814;26;1293;-53
2024/04/09 04:57:49;;;;;;;;;;;;;;;16.43;50.05;101154.13;5458087;26;1243;-56
2024/04/09 05:00:14;;;;;;;;;;;;;;;15.81;49.85;101152.72;5447209;26;1266;-55
2024/04/09 05:02:40;;;;;;;;;;;;;;;15.55;48.78;101150.75;5451162;26;1400;-57
2024/04/09 05:05:06;;;;;;;;;;;;;;;16.26;49.86;101156.09;5421026;26;1846;-54
2024/04/09 05:07:32;;;;;;;;;;;;;;;16.51;49.79;101157.13;5428744;26;1599;-56
2024/04/09 05:09:58;;;;;;;;;;;;;;;15.89;49.70;101161.91;5428761;26;1402;-60
2024/04/09 05:12:24;;;;;;;;;;;;;;;15.67;48.35;101154.44;5420641;26;1311;-56
2024/04/09 05:14:49;;;;;;;;;;;;;;;15.50;47.25;101156.34;5426048;26;1280;-58
2024/04/09 05:17:15;;;;;;;;;;;;;;;15.48;46.90;101154.75;5442884;26;1381;-60
2024/04/09 05:19:41;;;;;;;;;;;;;;;16.03;48.14;101154.91;5439508;26;1148;-60
2024/04/09 05:22:06;;;;;;;;;;;;;;;16.05;48.83;101150.34;5427192;26;1381;-63
2024/04/09 05:24:33;;;;;;;;;;;;;;;16.15;49.68;101145.28;5424793;26;1851;-62
2024/04/09 05:26:59;;;;;;;;;;;;;;;17.73;48.22;101146.22;5426049;26;1532;-62
2024/04/09 05:29:24;;;;;;;;;;;;;;;16.25;49.75;101149.06;5429474;26;1436;-60
2024/04/09 05:31:50;;;;;;;;;;;;;;;16.00;48.73;101150.63;5454458;26;1288;-60
2024/04/09 05:34:16;;;;;;;;;;;;;;;17.12;48.90;101154.91;5433665;26;1359;-61
2024/04/09 05:36:41;;;;;;;;;;;;;;;16.15;49.40;101142.63;5456744;26;1119;-60
2024/04/09 05:39:08;;;;;;;;;;;;;;;15.88;48.46;101144.28;5448415;26;1450;-57
2024/04/09 05:41:33;;;;;;;;;;;;;;;15.68;47.74;101153.53;5430746;26;2843;-62
2024/04/09 05:43:59;;;;;;;;;;;;;;;15.54;47.26;101147.28;5423133;26;1829;-57
2024/04/09 05:46:24;;;;;;;;;;;;;;;15.49;46.65;101145.84;5426415;26;1264;-53
2024/04/09 05:48:50;;;;;;;;;;;;;;;15.52;47.57;101151.81;5427635;26;1210;-56
2024/04/09 05:51:15;;;;;;;;;;;;;;;16.39;48.37;101155.25;5422773;26;1210;-57
2024/04/09 05:53:41;;;;;;;;;;;;;;;15.79;48.41;101152.84;5455965;26;1220;-58
2024/04/09 05:56:06;;;;;;;;;;;;;;;15.56;47.88;101144.53;5420039;26;1178;-59
2024/04/09 05:58:32;;;;;;;;;;;;;;;15.45;48.24;101154.94;5429145;26;1331;-58
2024/04/09 06:00:58;;;;;;;;;;;;;;;16.74;47.94;101156.53;5422379;26;1358;-59
2024/04/09 06:03:23;;;;;;;;;;;;;;;15.86;48.87;101153.28;5428307;26;1362;-58
2024/04/09 06:05:51;;;;;;;;;;;;;;;16.53;49.06;101163.16;5423919;26;1388;-59
2024/04/09 06:08:17;;;;;;;;;;;;;;;16.29;48.99;101155.00;5451534;26;1301;-59
2024/04/09 06:10:43;;;;;;;;;;;;;;;15.95;49.24;101159.81;5456388;26;2811;-56
2024/04/09 06:13:10;;;;;;;;;;;;;;;17.47;47.59;101154.25;5456300;26;1150;-57
2024/04/09 06:15:35;;;;;;;;;;;;;;;16.20;49.28;101161.75;5455933;26;1099;-59
2024/04/09 06:18:01;;;;;;;;;;;;;;;15.84;48.77;101163.16;5455885;26;1262;-57
2024/04/09 06:20:26;;;;;;;;;;;;;;;15.84;47.90;101166.66;5455618;26;1306;-57
2024/04/09 06:22:52;;;;;;;;;;;;;;;16.69;48.76;101166.59;5456355;26;1226;-58
2024/04/09 06:25:17;;;;;;;;;;;;;;;16.31;49.05;101160.22;5456050;26;1854;-55
2024/04/09 06:27:43;;;;;;;;;;;;;;;15.83;48.84;101161.47;5447689;26;1490;-55
2024/04/09 06:30:08;;;;;;;;;;;;;;;15.74;48.28;101157.56;5432303;26;1128;-59
2024/04/09 06:32:34;;;;;;;;;;;;;;;15.62;47.50;101157.41;5426584;26;1518;-57
2024/04/09 06:35:00;;;;;;;;;;;;;;;16.72;48.44;101161.09;5426395;26;1359;-55
2024/04/09 06:37:25;;;;;;;;;;;;;;;15.99;48.32;101161.34;5432880;26;1335;-57
2024/04/09 06:39:51;;;;;;;;;;;;;;;15.74;47.92;101158.44;5432610;26;1079;-58
2024/04/09 06:42:16;;;;;;;;;;;;;;;16.67;48.23;101168.50;5455320;26;2910;-59
2024/04/09 06:44:42;;;;;;;;;;;;;;;16.27;48.45;101162.22;5455876;26;1820;-58
2024/04/09 06:47:08;;;;;;;;;;;;;;;15.92;48.00;101155.56;5451440;26;1218;-58
2024/04/09 06:49:34;;;;;;;;;;;;;;;16.06;48.50;101164.47;5436323;26;1119;-57
2024/04/09 06:52:09;;;;;;;;;;;;;;;17.00;48.05;101164.53;5455160;26;1091;-53
2024/04/09 06:54:34;;;;;;;;;;;;;;;16.12;48.52;101151.66;5455945;26;1228;-56
2024/04/09 06:57:00;;;;;;;;;;;;;;;15.90;48.24;101154.78;5455639;26;1207;-59
2024/04/09 06:59:25;;;;;;;;;;;;;;;15.88;48.36;101160.19;5437213;26;1256;-62
2024/04/09 07:01:51;;;;;;;;;;;;;;;16.58;48.36;101151.41;5451092;26;1207;-55
2024/04/09 07:04:17;;;;;;;;;;;;;;;16.09;48.30;101153.66;5453013;26;1858;-59
2024/04/09 07:06:43;;;;;;;;;;;;;;;15.87;47.54;101152.34;5455103;26;1130;-59
2024/04/09 07:09:09;;;;;;;;;;;;;;;17.07;47.86;101163.16;5451038;26;1336;-60
2024/04/09 07:11:34;;;;;;;;;;;;;;;16.24;48.50;101157.97;5437902;26;2403;-58
2024/04/09 07:14:00;;;;;;;;;;;;;;;15.91;48.14;101149.38;5449091;26;1209;-59
2024/04/09 07:16:25;;;;;;;;;;;;;;;15.82;47.28;101146.47;5452103;26;1055;-59
2024/04/09 07:18:51;;;;;;;;;;;;;;;16.97;47.68;101154.97;5453905;26;1175;-58
2024/04/09 07:21:17;;;;;;;;;;;;;;;16.10;48.62;101140.28;5455035;26;1386;-61
2024/04/09 07:23:43;;;;;;;;;;;;;;;15.95;47.97;101149.22;5430296;26;1869;-63
2024/04/09 07:26:08;;;;;;;;;;;;;;;15.79;47.44;101144.88;5437452;26;1304;-63
2024/04/09 07:28:34;;;;;;;;;;;;;;;15.69;47.05;101136.66;5450062;26;1413;-60
2024/04/09 07:31:05;;;;;;;;;;;;;;;16.94;47.26;101151.66;5453008;26;1208;-58
2024/04/09 07:33:31;;;;;;;;;;;;;;;16.08;48.27;101142.16;5454251;26;1325;-59
2024/04/09 07:35:57;;;;;;;;;;;;;;;15.83;47.98;101141.06;5448286;26;1272;-57
2024/04/09 07:38:22;;;;;;;;;;;;;;;15.77;47.42;101144.97;5440924;26;1282;-62
2024/04/09 07:40:48;;;;;;;;;;;;;;;16.14;47.75;101144.44;5452036;26;2203;-62
2024/04/09 07:43:13;;;;;;;;;;;;;;;16.61;47.76;101140.56;5456549;26;1147;-62
2024/04/09 07:45:39;;;;;;;;;;;;;;;16.01;48.33;101143.53;5442120;26;1826;-62
2024/04/09 07:48:05;;;;;;;;;;;;;;;17.33;47.78;101138.41;5450637;26;1252;-65
2024/04/09 07:50:31;;;;;;;;;;;;;;;16.43;48.38;101142.63;5457796;26;1187;-68
2024/04/09 07:52:57;;;;;;;;;;;;;;;16.01;48.40;101139.09;5457699;26;1248;-66
2024/04/09 07:55:22;;;;;;;;;;;;;;;15.91;47.67;101141.41;5442057;26;1243;-64
2024/04/09 07:57:48;;;;;;;;;;;;;;;15.89;47.17;101138.03;5444826;26;1305;-61
2024/04/09 08:00:14;;;;;;;;;;;;;;;16.77;47.64;101138.56;5457387;26;1114;-65
2024/04/09 08:02:42;;;;;;;;;;;;;;;16.00;48.39;101137.38;5444454;26;1363;-62
2024/04/09 08:05:12;;;;;;;;;;;;;;;15.86;48.08;101142.69;5434811;26;1852;-59
2024/04/09 08:07:39;;;;;;;;;;;;;;;15.82;47.37;101135.84;5447109;26;1201;-60
2024/04/09 08:10:11;;;;;;;;;;;;;;;15.69;46.81;101134.00;5443973;26;2173;-61
2024/04/09 08:12:36;;;;;;;;;;;;;;;15.73;47.27;101126.69;5438350;26;1430;-59
2024/04/09 08:15:02;;;;;;;;;;;;;;;16.87;47.24;101136.13;5452458;26;1467;-63
2024/04/09 08:17:27;;;;;;;;;;;;;;;16.00;48.27;101128.53;5445587;26;1230;-64
2024/04/09 08:19:54;;;;;;;;;;;;;;;15.83;48.11;101129.63;5445618;26;1135;-62
2024/04/09 08:22:20;;;;;;;;;;;;;;;15.72;47.60;101124.97;5442806;26;1346;-62
2024/04/09 08:24:45;;;;;;;;;;;;;;;16.01;47.87;101124.97;5440867;26;1860;-62
2024/04/09 08:27:11;;;;;;;;;;;;;;;16.69;47.71;101132.06;5430378;26;1526;-58
2024/04/09 08:29:37;;;;;;;;;;;;;;;16.02;48.23;101124.00;5433739;26;1144;-60
2024/04/09 08:32:03;;;;;;;;;;;;;;;15.89;47.80;101116.81;5457499;26;1159;-57
2024/04/09 08:34:28;;;;;;;;;;;;;;;15.78;47.37;101121.97;5439117;26;1301;-57
2024/04/09 08:36:54;;;;;;;;;;;;;;;15.67;47.06;101115.53;5422144;26;1355;-54
2024/04/09 08:39:20;;;;;;;;;;;;;;;16.94;46.91;101117.13;5424863;26;1249;-56
2024/04/09 08:41:45;;;;;;;;;;;;;;;16.06;48.42;101117.56;5440718;26;2108;-59
2024/04/09 08:44:11;;;;;;;;;;;;;;;15.82;48.02;101110.19;5426257;26;1853;-58
2024/04/09 08:46:36;;;;;;;;;;;;;;;15.78;47.38;101114.00;5392546;26;1271;-57
2024/04/09 08:49:02;;;;;;;;;;;;;;;15.69;47.19;101106.63;5452848;26;1152;-58
2024/04/09 08:51:28;;;;;;;;;;;;;;;16.67;47.71;101112.72;5456055;26;1206;-60
2024/04/09 08:53:53;;;;;;;;;;;;;;;16.47;47.92;101115.78;5454940;26;1115;-58
2024/04/09 08:56:19;;;;;;;;;;;;;;;15.90;48.31;101102.59;5432855;26;1567;-60
2024/04/09 08:58:45;;;;;;;;;;;;;;;15.87;47.52;101101.94;5450001;26;1119;-61
2024/04/09 09:01:29;;;;;;;;;;;;;;;16.96;47.29;101116.06;5434650;26;1305;-60
2024/04/09 09:03:55;;;;;;;;;;;;;;;15.93;48.51;101111.31;5434167;26;1864;-60
2024/04/09 09:06:21;;;;;;;;;;;;;;;15.78;47.61;101101.56;5457748;26;1271;-59
2024/04/09 09:08:46;;;;;;;;;;;;;;;17.38;47.08;101107.03;5457638;26;1170;-60
2024/04/09 09:11:19;;;;;;;;;;;;;;;16.26;48.45;101107.44;5456843;26;2140;-58
2024/04/09 09:13:45;;;;;;;;;;;;;;;15.98;48.10;101103.91;5425547;26;1405;-60
2024/04/09 09:16:10;;;;;;;;;;;;;;;15.84;47.68;101105.66;5424740;26;1270;-55
2024/04/09 09:18:36;;;;;;;;;;;;;;;15.76;47.20;101102.63;5390438;26;1491;-56
2024/04/09 09:21:02;;;;;;;;;;;;;;;16.77;47.78;101105.84;5426949;26;1334;-59
2024/04/09 09:23:27;;;;;;;;;;;;;;;16.29;48.09;101093.97;5436111;26;1825;-57
2024/04/09 09:25:54;;;;;;;;;;;;;;;15.93;48.11;101098.91;5452510;26;1511;-57
2024/04/09 09:28:25;;;;;;;;;;;;;;;15.83;47.53;101089.81;5456312;26;1289;-56
2024/04/09 09:30:53;;;;;;;;;;;;;;;16.21;47.76;101085.66;5452037;26;1217;-56
2024/04/09 09:33:21;;;;;;;;;;;;;;;16.78;47.51;101094.28;5429034;26;1703;-59
2024/04/09 09:35:50;;;;;;;;;;;;;;;16.06;48.08;101090.16;5456099;26;1252;-56
2024/04/09 09:38:17;;;;;;;;;;;;;;;16.01;47.47;101078.06;5400651;26;1187;-55
2024/04/09 09:40:44;;;;;;;;;;;;;;;15.80;47.29;101074.94;5449125;26;2052;-56
2024/04/09 09:43:10;;;;;;;;;;;;;;;17.46;46.70;101083.41;5405391;26;1282;-54
2024/04/09 09:45:35;;;;;;;;;;;;;;;16.29;48.39;101078.03;5400817;26;1836;-54
2024/04/09 09:48:01;;;;;;;;;;;;;;;16.05;47.98;101080.50;5404529;26;1385;-55
2024/04/09 09:50:27;;;;;;;;;;;;;;;16.30;48.23;101074.41;5418222;26;1350;-53
2024/04/09 09:52:52;;;;;;;;;;;;;;;16.68;47.63;101072.81;5456427;26;947;-57
2024/04/09 09:55:18;;;;;;;;;;;;;;;16.07;48.29;101063.53;5429532;26;1272;-55
2024/04/09 09:57:44;;;;;;;;;;;;;;;15.95;47.84;101059.81;5434896;26;1340;-54
2024/04/09 10:00:10;;;;;;;;;;;;;;;15.87;47.32;101060.34;5467316;26;1271;-56
2024/04/09 10:02:36;;;;;;;;;;;;;;;15.81;46.87;101060.75;5479000;26;1194;-57
2024/04/09 10:05:02;;;;;;;;;;;;;;;15.73;46.43;101052.44;5428828;26;1851;-55
2024/04/09 10:07:27;;;;;;;;;;;;;;;15.67;46.21;101053.66;5417941;26;1260;-56
2024/04/09 10:09:53;;;;;;;;;;;;;;;16.61;46.91;101053.78;5450206;26;1139;-55
2024/04/09 10:12:31;;;;;;;;;;;;;;;16.13;47.87;101055.16;5452269;26;2589;-56
2024/04/09 10:14:57;;;;;;;;;;;;;;;15.83;47.87;101058.00;5431775;26;1181;-54
2024/04/09 10:17:27;;;;;;;;;;;;;;;15.79;47.09;101052.88;5441524;26;1273;-55
2024/04/09 10:19:54;;;;;;;;;;;;;;;17.07;46.75;101051.53;5407487;26;1445;-57
2024/04/09 10:22:19;;;;;;;;;;;;;;;16.01;48.19;101046.22;5450119;26;1146;-55
2024/04/09 10:24:45;;;;;;;;;;;;;;;15.89;47.55;101039.00;5435551;26;1834;-53
2024/04/09 10:27:11;;;;;;;;;;;;;;;15.77;47.03;101045.97;5431399;26;1428;-54
2024/04/09 10:29:37;;;;;;;;;;;;;;;15.67;46.92;101043.91;5415311;26;1081;-52
2024/04/09 10:32:11;;;;;;;;;;;;;;;15.70;46.26;101045.50;5454972;26;1162;-56
2024/04/09 10:34:37;;;;;;;;;;;;;;;15.63;47.22;101041.56;5455683;26;1124;-57
2024/04/09 10:37:02;;;;;;;;;;;;;;;16.84;46.77;101027.41;5424087;26;1115;-57
2024/04/09 10:39:28;;;;;;;;;;;;;;;15.99;47.91;101033.97;5434417;26;1301;-59
2024/04/09 10:41:56;;;;;;;;;;;;;;;15.81;47.38;101028.91;5406511;26;2410;-57
2024/04/09 10:44:25;;;;;;;;;;;;;;;15.72;46.97;101032.16;5415177;26;1829;-57
2024/04/09 10:46:52;;;;;;;;;;;;;;;15.55;46.93;101031.44;5433915;26;1206;-59
2024/04/09 10:49:18;;;;;;;;;;;;;;;15.67;46.39;101021.84;5409586;26;1630;-57
2024/04/09 10:51:46;;;;;;;;;;;;;;;16.52;47.26;101012.75;5401493;26;1213;-58
2024/04/09 10:54:12;;;;;;;;;;;;;;;15.88;47.63;101011.63;5410384;26;1289;-58
2024/04/09 10:56:38;;;;;;;;;;;;;;;15.81;47.22;101017.44;5444421;26;1304;-53
2024/04/09 10:59:12;;;;;;;;;;;;;;;15.63;46.74;101007.09;5400951;26;1293;-58
2024/04/09 11:01:40;;;;;;;;;;;;;;;17.24;46.59;101013.16;5440419;26;1559;-59
2024/04/09 11:07:27;;;;;;;;;;;;;;;15.77;47.84;100998.22;5425832;26;1186;-54
2024/04/09 11:09:53;;;;;;;;;;;;;;;15.72;47.15;100990.56;5422504;26;1260;-51
2024/04/09 11:15:46;;;;;;;;;;;;;;;16.05;47.82;100993.75;5449253;26;1207;-57
2024/04/09 11:18:13;;;;;;;;;;;;;;;15.86;47.25;100994.13;5450786;26;1596;-56
2024/04/09 11:20:39;;;;;;;;;;;;;;;17.11;47.26;100991.06;5446833;26;1179;-59
2024/04/09 11:23:06;;;;;;;;;;;;;;;16.27;47.85;100971.94;5446904;26;1438;-55
2024/04/09 11:25:35;;;;;;;;;;;;;;;15.97;47.58;100975.69;5415394;26;1822;-55
2024/04/09 11:28:02;;;;;;;;;;;;;;;15.83;47.13;100970.44;5458095;26;1377;-53
2024/04/09 11:30:28;;;;;;;;;;;;;;;15.73;46.81;100968.38;5458414;26;1190;-58
2024/04/09 11:32:54;;;;;;;;;;;;;;;17.23;46.47;100960.91;5443494;26;1460;-54
2024/04/09 11:35:20;;;;;;;;;;;;;;;16.30;47.77;100960.25;5426374;26;1187;-56
2024/04/09 11:37:52;;;;;;;;;;;;;;;15.93;47.85;100963.59;5422389;26;1323;-57
2024/04/09 11:40:36;;;;;;;;;;;;;;;15.81;47.19;100957.28;5457867;26;2305;-56
2024/04/09 11:43:02;;;;;;;;;;;;;;;16.01;47.61;100956.00;5427175;26;1291;-58
2024/04/09 11:45:30;;;;;;;;;;;;;;;16.47;47.70;100952.94;5457596;26;1820;-57
2024/04/09 11:47:56;;;;;;;;;;;;;;;16.01;47.66;100953.34;5449738;26;1345;-56
2024/04/09 11:50:22;;;;;;;;;;;;;;;15.93;46.88;100954.78;5424307;26;1293;-56
2024/04/09 11:52:48;;;;;;;;;;;;;;;15.85;47.75;100953.47;5441426;26;1311;-55
2024/04/09 11:55:14;;;;;;;;;;;;;;;16.55;47.46;100942.63;5433096;26;1328;-54
2024/04/09 11:57:43;;;;;;;;;;;;;;;16.00;47.74;100948.09;5457113;26;1261;-56
2024/04/09 12:00:12;;;;;;;;;;;;;;;15.82;47.51;100944.84;5456892;26;1162;-54
2024/04/09 12:02:41;;;;;;;;;;;;;;;16.86;47.24;100931.66;5458035;26;1212;-60
2024/04/09 12:05:06;;;;;;;;;;;;;;;16.08;48.01;100935.16;5457821;26;1824;-55
2024/04/09 12:07:32;;;;;;;;;;;;;;;17.24;47.21;100941.34;5406380;26;1232;-56
2024/04/09 12:09:57;;;;;;;;;;;;;;;16.74;48.19;100939.53;5453957;26;2640;-53
2024/04/09 12:12:23;;;;;;;;;;;;;;;16.23;48.21;100935.09;5424047;26;1213;-55
2024/04/09 12:14:48;;;;;;;;;;;;;;;16.18;47.46;100935.41;5430113;26;1453;-54
2024/04/09 12:17:14;;;;;;;;;;;;;;;15.96;47.27;100925.38;5430056;26;1350;-54
2024/04/09 12:19:40;;;;;;;;;;;;;;;15.84;46.79;100922.59;5425501;26;1264;-56
2024/04/09 12:22:06;;;;;;;;;;;;;;;15.75;46.35;100924.06;5458132;26;1517;-59
2024/04/09 12:24:31;;;;;;;;;;;;;;;15.73;46.18;100925.13;5458020;26;1837;-57
2024/04/09 12:27:00;;;;;;;;;;;;;;;16.79;47.19;100925.06;5457759;26;1115;-57
2024/04/09 12:29:28;;;;;;;;;;;;;;;16.21;47.90;100916.63;5455710;26;1445;-59
2024/04/09 12:31:58;;;;;;;;;;;;;;;15.87;47.67;100914.44;5433872;26;1341;-56
2024/04/09 12:34:23;;;;;;;;;;;;;;;15.79;47.12;100912.31;5457940;26;1254;-62
2024/04/09 12:36:49;;;;;;;;;;;;;;;15.70;46.75;100906.75;5426532;26;1235;-58
2024/04/09 12:39:14;;;;;;;;;;;;;;;15.51;46.53;100908.84;5434273;26;1216;-57
2024/04/09 12:41:40;;;;;;;;;;;;;;;16.72;47.21;100906.91;5442087;26;2502;-58
2024/04/09 12:44:05;;;;;;;;;;;;;;;16.28;47.79;100909.09;5425555;26;1837;-58
2024/04/09 12:46:31;;;;;;;;;;;;;;;15.93;47.57;100902.56;5455994;26;1273;-55
2024/04/09 12:48:56;;;;;;;;;;;;;;;17.27;47.19;100907.53;5448178;26;1362;-65